createdAt,value
2022-07-29T00:01:19.677Z,74.37
2022-07-29T00:03:47.995Z,73.75
2022-07-29T00:06:16.344Z,73.93
2022-07-29T00:08:44.350Z,75.46
2022-07-29T00:11:12.383Z,75.69
2022-07-29T00:13:40.417Z,75.64
2022-07-29T00:16:08.495Z,75.47
2022-07-29T00:18:37.905Z,75.02
2022-07-29T00:21:05.962Z,76.52
2022-07-29T00:23:36.828Z,74.52
2022-07-29T00:26:05.209Z,75.03
2022-07-29T00:28:33.224Z,74.71
2022-07-29T00:31:01.356Z,75.33
2022-07-29T00:33:31.015Z,75.34
2022-07-29T00:35:59.453Z,76.49
2022-07-29T00:38:27.448Z,76.63
2022-07-29T00:40:55.517Z,76.98
2022-07-29T00:43:23.635Z,76.21
2022-07-29T00:45:51.651Z,76.01
2022-07-29T00:48:19.631Z,76.71
2022-07-29T00:50:47.685Z,77.01
2022-07-29T00:53:17.120Z,76.50
2022-07-29T00:55:45.329Z,76.40
2022-07-29T00:58:15.035Z,77.21
2022-07-29T01:00:44.893Z,75.30
2022-07-29T01:03:13.793Z,75.15
2022-07-29T01:05:50.289Z,74.25
2022-07-29T01:08:22.131Z,74.05
2022-07-29T01:10:51.395Z,73.23
2022-07-29T01:13:20.183Z,73.07
2022-07-29T01:15:59.322Z,72.56
2022-07-29T01:18:34.085Z,72.55
2022-07-29T01:21:27.313Z,72.76
2022-07-29T01:24:09.935Z,73.91
2022-07-29T01:26:45.057Z,73.10
2022-07-29T01:29:28.961Z,72.81
2022-07-29T01:32:27.584Z,73.20
2022-07-29T01:35:00.950Z,73.04
2022-07-29T01:37:34.490Z,72.67
2022-07-29T01:40:05.837Z,73.77
2022-07-29T01:42:38.798Z,73.38
2022-07-29T01:45:20.819Z,73.32
2022-07-29T01:47:56.593Z,74.08
2022-07-29T01:50:33.648Z,74.24
2022-07-29T01:53:04.548Z,74.83
2022-07-29T01:55:37.567Z,74.98
2022-07-29T01:58:07.981Z,75.38
2022-07-29T02:00:38.400Z,75.80
2022-07-29T02:03:11.072Z,75.86
2022-07-29T02:05:41.350Z,76.49
2022-07-29T02:08:10.490Z,76.17
2022-07-29T02:10:40.988Z,76.94
2022-07-29T02:13:10.934Z,76.60
2022-07-29T02:15:43.944Z,76.88
2022-07-29T02:18:16.454Z,77.20
2022-07-29T02:20:48.088Z,77.16
2022-07-29T02:23:22.656Z,77.76
2022-07-29T02:25:53.712Z,76.79
2022-07-29T02:28:24.808Z,76.26
2022-07-29T02:30:57.723Z,75.91
2022-07-29T02:33:27.460Z,76.03
2022-07-29T02:35:57.222Z,76.15
2022-07-29T02:38:44.156Z,75.39
2022-07-29T02:41:15.998Z,74.88
2022-07-29T02:43:45.768Z,74.67
2022-07-29T02:46:29.280Z,74.92
2022-07-29T02:49:01.909Z,75.58
2022-07-29T02:51:44.793Z,77.53
2022-07-29T02:54:29.070Z,77.36
2022-07-29T02:56:59.179Z,78.20
2022-07-29T02:59:29.756Z,77.63
2022-07-29T03:02:02.044Z,77.50
2022-07-29T03:04:32.995Z,78.23
2022-07-29T03:07:02.738Z,77.44
2022-07-29T03:09:31.845Z,78.56
2022-07-29T03:12:00.288Z,78.36
2022-07-29T03:14:29.122Z,77.85
2022-07-29T03:16:59.510Z,78.81
2022-07-29T03:19:28.994Z,77.37
2022-07-29T03:21:59.272Z,77.42
2022-07-29T03:24:32.083Z,77.29
2022-07-29T03:27:00.780Z,77.33
2022-07-29T03:29:33.633Z,76.65
2022-07-29T03:32:07.178Z,76.95
2022-07-29T03:34:36.154Z,76.83
2022-07-29T03:37:04.223Z,77.59
2022-07-29T03:39:37.317Z,78.36
2022-07-29T03:42:09.030Z,78.20
2022-07-29T03:44:38.407Z,78.01
2022-07-29T03:47:09.709Z,77.70
2022-07-29T03:49:39.267Z,78.95
2022-07-29T03:52:07.954Z,78.27
2022-07-29T03:54:36.250Z,77.81
2022-07-29T03:57:05.796Z,78.32
2022-07-29T03:59:35.935Z,78.14
2022-07-29T04:02:05.759Z,77.72
2022-07-29T04:04:37.201Z,77.97
2022-07-29T04:07:05.768Z,78.03
2022-07-29T04:09:34.210Z,77.59
2022-07-29T04:12:04.312Z,77.58
2022-07-29T04:14:34.467Z,77.63
2022-07-29T04:17:02.523Z,77.94
2022-07-29T04:19:30.513Z,77.81
2022-07-29T04:22:00.735Z,77.52
2022-07-29T04:24:29.413Z,78.17
2022-07-29T04:26:57.564Z,79.11
2022-07-29T04:29:25.551Z,78.52
2022-07-29T04:31:53.608Z,78.54
2022-07-29T04:34:21.604Z,78.46
2022-07-29T04:36:49.655Z,78.13
2022-07-29T04:39:22.966Z,78.29
2022-07-29T04:41:52.577Z,77.59
2022-07-29T04:44:28.746Z,76.16
2022-07-29T04:46:58.236Z,71.75
2022-07-29T04:49:27.114Z,72.69
2022-07-29T04:51:55.558Z,69.98
2022-07-29T04:54:25.634Z,71.45
2022-07-29T04:56:54.467Z,71.67
2022-07-29T04:59:22.474Z,76.25
2022-07-29T05:01:50.603Z,77.96
2022-07-29T05:04:19.409Z,76.87
2022-07-29T05:06:48.132Z,73.12
2022-07-29T05:09:16.259Z,75.93
2022-07-29T05:11:45.682Z,75.39
2022-07-29T05:14:14.094Z,77.50
2022-07-29T05:16:43.063Z,72.59
2022-07-29T05:19:14.397Z,76.58
2022-07-29T05:21:43.157Z,68.83
2022-07-29T05:24:11.154Z,76.16
2022-07-29T05:26:39.819Z,74.12
2022-07-29T05:29:43.889Z,74.84
2022-07-29T05:31:57.324Z,70.39
2022-07-29T05:34:26.158Z,68.22
2022-07-29T05:36:54.482Z,72.01
2022-07-29T05:39:22.810Z,71.26
2022-07-29T05:42:11.750Z,68.79
2022-07-29T05:44:41.454Z,68.18
2022-07-29T05:47:09.826Z,63.01
2022-07-29T05:49:38.083Z,68.17
2022-07-29T05:52:07.084Z,62.14
2022-07-29T05:54:35.116Z,72.38
2022-07-29T05:57:03.548Z,69.16
2022-07-29T05:59:31.617Z,73.61
2022-07-29T06:02:01.148Z,72.99
2022-07-29T06:04:29.323Z,74.14
2022-07-29T06:06:57.440Z,76.28
2022-07-29T06:09:25.617Z,75.17
2022-07-29T06:11:53.673Z,73.41
2022-07-29T06:14:21.894Z,73.86
2022-07-29T06:16:49.999Z,71.17
2022-07-29T06:19:19.512Z,72.54
2022-07-29T06:21:49.322Z,73.27
2022-07-29T06:24:18.595Z,72.16
2022-07-29T06:26:47.158Z,74.35
2022-07-29T06:29:15.145Z,74.23
2022-07-29T06:31:43.185Z,73.47
2022-07-29T06:34:11.218Z,73.98
2022-07-29T06:36:41.000Z,73.20
2022-07-29T06:39:11.688Z,74.21
2022-07-29T06:41:40.340Z,73.53
2022-07-29T06:44:08.336Z,73.65
2022-07-29T06:46:36.457Z,72.51
2022-07-29T06:49:04.834Z,70.93
2022-07-29T06:51:32.949Z,71.26
2022-07-29T06:54:03.751Z,72.47
2022-07-29T06:56:38.897Z,71.89
2022-07-29T06:59:08.745Z,71.93
2022-07-29T07:01:43.132Z,71.46
2022-07-29T07:04:12.136Z,72.14
2022-07-29T07:09:09.359Z,71.45
2022-07-29T07:11:37.545Z,71.61
2022-07-29T07:14:05.540Z,70.89
2022-07-29T07:16:33.866Z,71.71
2022-07-29T07:19:02.353Z,71.28
2022-07-29T07:21:31.074Z,70.98
2022-07-29T07:23:59.719Z,70.78
2022-07-29T07:26:29.614Z,70.34
2022-07-29T07:28:57.633Z,67.58
2022-07-29T07:31:25.849Z,64.86
2022-07-29T07:33:54.574Z,63.78
2022-07-29T07:36:22.888Z,62.66
2022-07-29T07:38:51.267Z,62.55
2022-07-29T07:41:19.477Z,61.34
2022-07-29T07:43:48.938Z,59.09
2022-07-29T07:46:17.455Z,56.92
2022-07-29T07:48:45.912Z,56.08
2022-07-29T07:51:14.165Z,55.04
2022-07-29T07:53:42.293Z,55.14
2022-07-29T07:56:12.262Z,54.34
2022-07-29T07:58:41.111Z,54.35
2022-07-29T08:01:10.989Z,53.59
2022-07-29T08:03:39.973Z,52.87
2022-07-29T08:06:08.644Z,52.95
2022-07-29T08:08:36.694Z,53.40
2022-07-29T08:11:09.145Z,53.57
2022-07-29T08:13:39.462Z,53.69
2022-07-29T08:16:14.089Z,54.05
2022-07-29T08:18:45.100Z,52.93
2022-07-29T08:21:15.010Z,51.55
2022-07-29T08:23:54.381Z,49.96
2022-07-29T08:26:27.297Z,49.70
2022-07-29T08:28:55.324Z,50.41
2022-07-29T08:31:23.447Z,50.75
2022-07-29T08:33:52.955Z,51.01
2022-07-29T08:36:22.079Z,50.88
2022-07-29T08:38:50.729Z,50.41
2022-07-29T08:41:20.165Z,51.13
2022-07-29T08:43:48.584Z,50.83
2022-07-29T08:46:16.693Z,50.86
2022-07-29T08:48:45.632Z,50.59
2022-07-29T08:51:18.051Z,50.67
2022-07-29T08:53:48.451Z,51.28
2022-07-29T08:56:17.898Z,51.61
2022-07-29T08:58:46.858Z,51.12
2022-07-29T09:01:34.995Z,51.49
2022-07-29T09:04:07.878Z,51.79
2022-07-29T09:06:43.287Z,51.28
2022-07-29T09:09:11.555Z,51.27
2022-07-29T09:11:40.081Z,51.00
2022-07-29T09:14:08.842Z,51.06
2022-07-29T09:16:53.541Z,51.17
2022-07-29T09:19:27.252Z,50.62
2022-07-29T09:22:00.535Z,50.07
2022-07-29T09:24:42.715Z,49.88
2022-07-29T09:27:23.324Z,50.00
2022-07-29T09:30:00.114Z,49.16
2022-07-29T09:32:29.354Z,49.29
2022-07-29T09:35:17.037Z,48.99
2022-07-29T09:37:47.338Z,48.84
2022-07-29T09:40:18.278Z,48.66
2022-07-29T09:42:47.482Z,49.50
2022-07-29T09:45:27.972Z,49.62
2022-07-29T09:47:58.729Z,49.14
2022-07-29T09:50:37.832Z,49.63
2022-07-29T09:53:07.590Z,49.66
2022-07-29T09:55:48.105Z,49.59
2022-07-29T09:58:21.061Z,49.31
2022-07-29T10:00:51.002Z,49.82
2022-07-29T10:03:20.469Z,49.94
2022-07-29T10:06:05.629Z,49.84
2022-07-29T10:08:35.108Z,49.42
2022-07-29T10:11:13.551Z,49.69
2022-07-29T10:13:45.339Z,50.10
2022-07-29T10:16:14.531Z,49.84
2022-07-29T10:18:44.595Z,49.33
2022-07-29T10:21:35.673Z,49.01
2022-07-29T10:24:03.358Z,49.56
2022-07-29T10:26:32.559Z,49.66
2022-07-29T10:29:00.680Z,50.42
2022-07-29T10:31:42.895Z,49.91
2022-07-29T10:34:24.363Z,50.13
2022-07-29T10:37:03.893Z,49.81
2022-07-29T10:39:51.813Z,48.17
2022-07-29T10:42:33.402Z,48.68
2022-07-29T10:45:04.407Z,47.90
2022-07-29T10:47:35.059Z,47.84
2022-07-29T10:50:17.256Z,47.75
2022-07-29T10:52:58.686Z,46.95
2022-07-29T10:55:37.778Z,47.74
2022-07-29T11:01:37.021Z,47.99
2022-07-29T11:04:07.102Z,47.51
2022-07-29T11:07:09.904Z,48.54
2022-07-29T11:09:38.667Z,48.34
2022-07-29T11:12:47.863Z,49.88
2022-07-29T11:15:22.020Z,50.03
2022-07-29T11:18:15.134Z,50.07
2022-07-29T11:20:47.126Z,48.84
2022-07-29T11:23:27.587Z,49.07
2022-07-29T11:26:18.533Z,49.79
2022-07-29T11:28:54.243Z,50.35
2022-07-29T11:31:39.068Z,50.55
2022-07-29T11:37:28.361Z,51.30
2022-07-29T11:40:20.312Z,50.91
2022-07-29T11:42:52.858Z,50.69
2022-07-29T11:45:43.639Z,50.19
2022-07-29T11:48:31.068Z,50.09
2022-07-29T11:51:01.614Z,50.47
2022-07-29T11:56:25.628Z,49.60
2022-07-29T11:59:05.895Z,50.36
2022-07-29T12:01:38.264Z,50.09
2022-07-29T12:04:07.835Z,50.61
2022-07-29T12:06:36.060Z,49.48
2022-07-29T12:09:14.375Z,49.39
2022-07-29T12:11:45.054Z,50.45
2022-07-29T12:14:27.919Z,48.91
2022-07-29T12:16:58.083Z,49.62
2022-07-29T12:19:27.241Z,49.67
2022-07-29T12:22:00.861Z,49.47
2022-07-29T12:24:45.059Z,49.63
2022-07-29T12:27:14.160Z,49.75
2022-07-29T12:29:46.295Z,49.91
2022-07-29T12:32:19.773Z,49.56
2022-07-29T12:34:48.601Z,50.30
2022-07-29T12:37:16.866Z,50.76
2022-07-29T12:39:45.102Z,51.91
2022-07-29T12:42:15.038Z,53.32
2022-07-29T12:44:51.234Z,52.78
2022-07-29T12:47:22.012Z,51.98
2022-07-29T12:49:51.275Z,52.92
2022-07-29T12:52:30.541Z,52.85
2022-07-29T12:54:58.777Z,52.24
2022-07-29T12:57:27.712Z,52.64
2022-07-29T13:00:04.638Z,53.42
2022-07-29T13:02:34.769Z,53.31
2022-07-29T13:05:07.387Z,53.48
2022-07-29T13:07:55.291Z,52.66
2022-07-29T13:10:25.987Z,51.90
2022-07-29T13:13:09.166Z,52.34
2022-07-29T13:15:38.062Z,51.86
2022-07-29T13:18:28.305Z,51.96
2022-07-29T13:20:56.412Z,51.51
2022-07-29T13:23:24.473Z,51.72
2022-07-29T13:25:54.346Z,52.56
2022-07-29T13:28:23.278Z,52.49
2022-07-29T13:30:54.383Z,53.25
2022-07-29T13:33:26.970Z,53.30
2022-07-29T13:36:04.314Z,53.07
2022-07-29T13:38:32.306Z,53.00
2022-07-29T13:41:00.552Z,53.39
2022-07-29T13:43:28.560Z,51.17
2022-07-29T13:45:56.639Z,51.59
2022-07-29T13:48:26.104Z,50.96
2022-07-29T13:50:54.179Z,49.17
2022-07-29T13:53:26.729Z,48.33
2022-07-29T13:55:55.368Z,47.21
2022-07-29T13:58:23.388Z,46.76
2022-07-29T14:00:51.523Z,47.21
2022-07-29T14:03:19.585Z,47.38
2022-07-29T14:05:49.002Z,47.61
2022-07-29T14:08:17.069Z,48.30
2022-07-29T14:10:45.377Z,47.84
2022-07-29T14:13:24.579Z,48.56
2022-07-29T14:15:53.832Z,47.50
2022-07-29T14:18:21.834Z,47.35
2022-07-29T14:20:52.325Z,47.39
2022-07-29T14:23:20.603Z,46.49
2022-07-29T14:25:49.555Z,45.50
2022-07-29T14:28:17.905Z,44.92
2022-07-29T14:30:45.917Z,45.15
2022-07-29T14:33:14.006Z,44.92
2022-07-29T14:35:42.057Z,44.09
2022-07-29T14:38:11.482Z,43.70
2022-07-29T14:40:39.889Z,43.18
2022-07-29T14:43:07.971Z,43.59
2022-07-29T14:45:36.267Z,43.07
2022-07-29T14:48:04.414Z,42.95
2022-07-29T14:50:32.475Z,42.77
2022-07-29T14:53:00.741Z,42.54
2022-07-29T14:55:30.584Z,42.39
2022-07-29T14:58:08.684Z,42.18
2022-07-29T15:00:40.296Z,42.33
2022-07-29T15:03:11.241Z,41.89
2022-07-29T15:05:39.768Z,42.30
2022-07-29T15:08:09.256Z,42.76
2022-07-29T15:10:38.810Z,42.53
2022-07-29T15:13:06.893Z,43.07
2022-07-29T15:15:35.027Z,41.92
2022-07-29T15:18:03.068Z,42.04
2022-07-29T15:20:31.160Z,41.90
2022-07-29T15:22:59.178Z,41.92
2022-07-29T15:25:28.374Z,41.75
2022-07-29T15:28:01.490Z,41.09
2022-07-29T15:30:33.565Z,40.95
2022-07-29T15:33:02.562Z,40.85
2022-07-29T15:35:30.591Z,39.97
2022-07-29T15:37:58.631Z,40.00
2022-07-29T15:40:26.736Z,39.80
2022-07-29T15:42:54.784Z,38.69
2022-07-29T15:45:24.536Z,38.98
2022-07-29T15:47:52.607Z,37.97
2022-07-29T15:50:21.237Z,37.74
2022-07-29T15:52:49.330Z,36.72
2022-07-29T15:55:26.383Z,36.81
2022-07-29T15:57:58.562Z,36.58
2022-07-29T16:00:30.222Z,36.17
2022-07-29T16:03:01.474Z,36.00
2022-07-29T16:05:29.889Z,35.79
2022-07-29T16:07:59.832Z,34.34
2022-07-29T16:10:28.386Z,35.17
2022-07-29T16:12:56.730Z,35.92
2022-07-29T16:15:25.202Z,36.10
2022-07-29T16:17:54.786Z,36.46
2022-07-29T16:20:24.192Z,36.29
2022-07-29T16:22:52.752Z,35.97
2022-07-29T16:25:24.143Z,36.08
2022-07-29T16:28:01.875Z,36.89
2022-07-29T16:30:29.961Z,37.09
2022-07-29T16:32:59.628Z,36.49
2022-07-29T16:35:39.077Z,36.44
2022-07-29T16:38:08.094Z,36.12
2022-07-29T16:40:36.493Z,36.21
2022-07-29T16:43:05.169Z,35.41
2022-07-29T16:45:45.063Z,35.23
2022-07-29T16:48:18.030Z,35.03
2022-07-29T16:50:47.184Z,35.05
2022-07-29T16:53:15.248Z,35.52
2022-07-29T16:55:43.353Z,36.06
2022-07-29T16:58:12.067Z,35.29
2022-07-29T17:00:40.373Z,35.75
2022-07-29T17:03:08.517Z,36.01
2022-07-29T17:05:52.705Z,36.05
2022-07-29T17:08:22.684Z,36.29
2022-07-29T17:10:51.016Z,36.43
2022-07-29T17:13:19.046Z,35.87
2022-07-29T17:15:47.025Z,35.84
2022-07-29T17:18:15.037Z,36.14
2022-07-29T17:20:45.680Z,35.92
2022-07-29T17:23:13.712Z,35.93
2022-07-29T17:25:41.723Z,36.34
2022-07-29T17:28:09.798Z,36.35
2022-07-29T17:30:37.847Z,36.64
2022-07-29T17:33:05.901Z,37.43
2022-07-29T17:35:51.411Z,37.30
2022-07-29T17:38:20.904Z,37.62
2022-07-29T17:40:48.969Z,37.63
2022-07-29T17:43:17.007Z,38.01
2022-07-29T17:45:48.961Z,38.02
2022-07-29T17:48:18.777Z,38.23
2022-07-29T17:50:47.455Z,38.68
2022-07-29T17:53:16.872Z,38.85
2022-07-29T17:55:48.806Z,38.90
2022-07-29T17:58:17.119Z,38.81
2022-07-29T18:00:45.258Z,39.29
2022-07-29T18:03:13.462Z,39.68
2022-07-29T18:05:41.935Z,39.51
2022-07-29T18:08:10.372Z,39.94
2022-07-29T18:10:38.534Z,39.84
2022-07-29T18:13:08.139Z,39.72
2022-07-29T18:15:36.261Z,39.94
2022-07-29T18:18:04.359Z,39.86
2022-07-29T18:20:33.358Z,40.03
2022-07-29T18:23:02.200Z,39.60
2022-07-29T18:25:30.874Z,39.82
2022-07-29T18:28:00.706Z,40.05
2022-07-29T18:30:31.152Z,39.78
2022-07-29T18:33:20.210Z,39.86
2022-07-29T18:35:48.783Z,40.03
2022-07-29T18:38:17.091Z,40.10
2022-07-29T18:40:46.057Z,39.86
2022-07-29T18:43:14.801Z,40.21
2022-07-29T18:45:44.258Z,40.15
2022-07-29T18:48:13.232Z,39.99
2022-07-29T18:50:42.367Z,40.00
2022-07-29T18:53:10.444Z,40.02
2022-07-29T18:55:38.612Z,39.87
2022-07-29T18:58:06.683Z,40.22
2022-07-29T19:00:35.478Z,40.42
2022-07-29T19:03:05.229Z,40.26
2022-07-29T19:05:33.614Z,40.43
2022-07-29T19:08:01.684Z,40.29
2022-07-29T19:10:42.077Z,40.75
2022-07-29T19:13:10.273Z,40.95
2022-07-29T19:15:41.609Z,41.30
2022-07-29T19:18:11.786Z,40.93
2022-07-29T19:20:40.029Z,40.72
2022-07-29T19:23:09.173Z,40.85
2022-07-29T19:25:37.627Z,40.86
2022-07-29T19:28:22.137Z,41.40
2022-07-29T19:30:52.210Z,41.47
2022-07-29T19:33:25.141Z,41.00
2022-07-29T19:35:56.192Z,41.34
2022-07-29T19:38:25.812Z,41.42
2022-07-29T19:40:53.922Z,40.99
2022-07-29T19:43:51.327Z,40.63
2022-07-29T19:46:12.472Z,41.21
2022-07-29T19:48:44.926Z,40.97
2022-07-29T19:51:13.130Z,41.26
2022-07-29T19:53:44.946Z,41.01
2022-07-29T19:56:13.911Z,40.87
2022-07-29T19:58:44.200Z,41.08
2022-07-29T20:01:13.381Z,41.30
2022-07-29T20:03:44.949Z,41.41
2022-07-29T20:06:13.334Z,41.64
2022-07-29T20:08:41.985Z,41.83
2022-07-29T20:11:10.821Z,41.87
2022-07-29T20:13:38.924Z,42.10
2022-07-29T20:16:08.337Z,42.05
2022-07-29T20:18:36.522Z,42.27
2022-07-29T20:21:06.033Z,43.01
2022-07-29T20:23:34.210Z,43.13
2022-07-29T20:26:05.101Z,43.26
2022-07-29T20:28:35.451Z,43.70
2022-07-29T20:31:06.079Z,42.92
2022-07-29T20:33:34.164Z,43.38
2022-07-29T20:36:02.192Z,43.14
2022-07-29T20:38:31.637Z,43.13
2022-07-29T20:40:59.693Z,43.77
2022-07-29T20:43:27.967Z,43.98
2022-07-29T20:45:56.017Z,44.42
2022-07-29T20:48:24.108Z,44.01
2022-07-29T20:50:53.018Z,44.02
2022-07-29T20:53:21.102Z,44.33
2022-07-29T20:55:51.431Z,44.29
2022-07-29T20:58:19.918Z,44.62
2022-07-29T21:00:47.985Z,44.25
2022-07-29T21:03:17.668Z,44.62
2022-07-29T21:05:45.779Z,44.75
2022-07-29T21:08:13.880Z,45.23
2022-07-29T21:10:41.927Z,45.88
2022-07-29T21:13:11.412Z,46.55
2022-07-29T21:15:39.494Z,46.25
2022-07-29T21:18:16.400Z,45.95
2022-07-29T21:20:44.389Z,46.12
2022-07-29T21:23:12.479Z,47.00
2022-07-29T21:25:40.620Z,47.78
2022-07-29T21:28:25.942Z,48.53
2022-07-29T21:30:55.998Z,49.04
2022-07-29T21:33:24.081Z,49.11
2022-07-29T21:36:20.225Z,49.26
2022-07-29T21:38:40.851Z,49.74
2022-07-29T21:41:10.883Z,49.70
2022-07-29T21:43:41.970Z,49.86
2022-07-29T21:46:11.649Z,49.54
2022-07-29T21:48:44.155Z,50.07
2022-07-29T21:51:12.695Z,50.68
2022-07-29T21:53:40.818Z,50.75
2022-07-29T21:56:14.447Z,51.10
2022-07-29T21:58:43.289Z,50.94
2022-07-29T22:01:12.880Z,51.35
2022-07-29T22:03:41.059Z,52.24
2022-07-29T22:06:09.110Z,52.55
2022-07-29T22:08:41.890Z,52.72
2022-07-29T22:11:09.963Z,52.84
2022-07-29T22:13:38.058Z,53.08
2022-07-29T22:16:06.831Z,53.57
2022-07-29T22:18:36.277Z,53.93
2022-07-29T22:21:04.535Z,54.01
2022-07-29T22:23:32.615Z,53.96
2022-07-29T22:26:00.595Z,53.09
2022-07-29T22:28:28.751Z,52.89
2022-07-29T22:30:56.912Z,52.39
2022-07-29T22:33:25.078Z,52.20
2022-07-29T22:35:54.575Z,52.76
2022-07-29T22:38:22.612Z,52.46
2022-07-29T22:40:51.371Z,52.44
2022-07-29T22:43:20.024Z,53.18
2022-07-29T22:45:48.135Z,53.05
2022-07-29T22:48:16.339Z,53.50
2022-07-29T22:50:44.405Z,53.54
2022-07-29T22:53:13.866Z,53.94
2022-07-29T22:55:42.057Z,53.52
2022-07-29T22:58:10.158Z,53.79
2022-07-29T23:00:38.316Z,53.65
2022-07-29T23:03:06.418Z,53.96
2022-07-29T23:05:34.524Z,54.13
2022-07-29T23:08:02.758Z,54.31
2022-07-29T23:10:32.369Z,54.36
2022-07-29T23:13:00.411Z,54.53
2022-07-29T23:15:28.490Z,54.20
2022-07-29T23:17:56.781Z,54.39
2022-07-29T23:20:24.921Z,54.19
2022-07-29T23:22:52.984Z,54.14
2022-07-29T23:25:21.183Z,53.97
2022-07-29T23:27:50.569Z,54.30
2022-07-29T23:30:18.643Z,54.03
2022-07-29T23:32:46.649Z,53.92
2022-07-29T23:35:14.773Z,54.03
2022-07-29T23:37:42.898Z,54.28
2022-07-29T23:40:14.473Z,53.88
2022-07-29T23:42:43.698Z,54.57
2022-07-29T23:45:14.801Z,54.08
2022-07-29T23:47:43.043Z,53.93
2022-07-29T23:50:13.329Z,54.14
2022-07-29T23:52:41.633Z,54.48
2022-07-29T23:55:36.908Z,55.57
2022-07-29T23:57:58.765Z,55.15
